Huggers Landing, Alabama
Current Conditions -  °F | °C
As of 1:15 PM on Thursday 18 Dec 2014 (Local Time) from KJKA Reporting Station
Clear Clear  
Wind Chill: 62°   Ceiling: Unl
Heat Index: 62°   Visibility: 10mi
Dew Point: 46°   Wind: 3mph
Humidity: 57%   Direction: 170°S
Pressure: 30.13"   Gusts: NA
Location:  30.3794°N, 87.7151°W
Report Text: KJKA 181915Z AUTO 17003KT 10SM CLR 16/08 A3013 RMK AO2 T01640079
Loading
Personal Weather Stations






























Interactive Weather Map New forecast layout! Learn more

10-Day Weather Forecast

Advertisements
Track Severe Weather on mobile